Airfield :
LOGIN :

Register | Disclaimer

   EN    FR    IT 

 










Legend :    VFR   Marginal VFR   IFR   Intensive IFR   Very Intensive IFR
Visi :
Ceiling :
>= 8 km
>= 3000ft
5 to 8 km
1000 to 3000 ft
1500m to 5 km
500 to 1000 ft
800 to 1500m
200 to 500 ft
< 800m
< 200 ft
Symbols :   Thunderstorms  Fog  Heavy snow  Heavy precipitations  Wind > 20 kt
SIGMETs :     Misc.  Thunderstorms  Icing  Turbulence  Mountain Waves  Volcanic Ashes






- Airport Elevation : 242 ft
- IATA code : DUB


EIDW - Dublin

CURRENT METAR :
  • 271800Z 21010KT 180V240 9999 FEW018 SCT030 BKN200 04/01 Q0986 NOSIG

EXPIRED METARs :
  • 271730Z 20011KT 170V230 9999 FEW018 BKN032 BKN200 05/01 Q0987 NOSIG
  • 271700Z 19008KT 150V260 9999 FEW018 SCT035 BKN200 05/01 Q0987 NOSIG
  • 271630Z 20009KT 160V240 9999 FEW018 SCT035 BKN120 05/01 Q0988 NOSIG
  • 271600Z 19013KT 160V220 9999 FEW018 SCT030 BKN120 06/01 Q0988 NOSIG
  • 271530Z 20009KT 170V250 9999 FEW018 SCT030 BKN120 06/01 Q0989 NOSIG
  • 271500Z 21011KT 180V260 9999 FEW018 SCT040 BKN120 06/01 Q0990 NOSIG

TAF TAF EIDW
Valid from the 27 at 18:00 until the 28 at 18:00 UTC


271700Z 2718/2818 20012KT 9999 FEW018 SCT040
BECMG 2718/2720 24008KT
BECMG 2722/2724 26015G26KT
BECMG 2809/2811 26020G33KT
PROB30
TEMPO 2809/2815 -SHRASN SCT020CB



MET'MAP, your aeronautical weather chart ! - Copyright ORBIFLY December 2007 - Disclaimer

ORBIFLY MET'MAP TEAM :

Programming & Development : Alexandra Zaïnal
Concept & original design : Baudouin d'Aumeries
Assistance for programming : Marc-Olivier Méhu
Technical & hardware support : Manuel Goepfert

Contact : metmap@orbifly.com




SOURCES & CREDITS :

   NOAA